Terminal Aerodrome Forecast
Issued by NWS

Home | Current Version | Previous Version | Text Only | Print | Product List | Glossary On
Versions: 1 2 3 4 5 6 7 8 9 10 11 12 13 14 15 16
000
FTUS43 KIND 261700
TAFHUF
TAF
KHUF 261720Z 2618/2718 20010KT P6SM BKN250
     FM262100 19009KT P6SM BKN040
     FM271000 19010KT 6SM -SHRA BR OVC025=

USA.gov is the U.S. government's official web portal to all federal, state and local government web resources and services.